createdAt,value
2022-12-06T00:02:16.663Z,40.17
2022-12-06T00:04:47.858Z,46.60
2022-12-06T00:07:16.420Z,39.50
2022-12-06T00:09:50.247Z,38.63
2022-12-06T00:12:18.883Z,42.80
2022-12-06T00:15:05.141Z,42.42
2022-12-06T00:17:52.698Z,52.05
2022-12-06T00:20:40.206Z,43.20
2022-12-06T00:23:31.418Z,46.30
2022-12-06T00:26:17.941Z,52.45
2022-12-06T00:28:56.842Z,47.22
2022-12-06T00:31:43.550Z,46.15
2022-12-06T00:34:23.061Z,46.20
2022-12-06T00:36:51.560Z,44.08
2022-12-06T00:39:22.380Z,54.38
2022-12-06T00:41:55.779Z,47.45
2022-12-06T00:44:24.640Z,50.17
2022-12-06T00:47:08.854Z,48.72
2022-12-06T00:49:56.529Z,52.85
2022-12-06T00:52:46.751Z,49.15
2022-12-06T00:55:28.266Z,44.92
2022-12-06T00:58:11.277Z,65.63
2022-12-06T01:00:55.652Z,52.85
2022-12-06T01:03:44.013Z,49.95
2022-12-06T01:06:33.682Z,55.35
2022-12-06T01:09:14.672Z,51.60
2022-12-06T01:11:55.960Z,51.28
2022-12-06T01:14:42.830Z,49.50
2022-12-06T01:17:33.138Z,56.17
2022-12-06T01:20:25.635Z,54.58
2022-12-06T01:23:13.194Z,52.47
2022-12-06T01:26:00.702Z,53.53
2022-12-06T01:28:48.357Z,55.72
2022-12-06T01:31:39.107Z,52.47
2022-12-06T01:34:14.240Z,54.33
2022-12-06T01:36:42.570Z,53.92
2022-12-06T01:39:12.645Z,62.92
2022-12-06T01:41:41.952Z,57.13
2022-12-06T01:44:30.042Z,56.60
2022-12-06T01:47:01.870Z,53.97
2022-12-06T01:49:35.542Z,53.25
2022-12-06T01:52:06.464Z,60.28
2022-12-06T01:54:35.663Z,58.08
2022-12-06T01:57:06.195Z,47.60
2022-12-06T01:59:34.861Z,57.08
2022-12-06T02:02:04.580Z,50.35
2022-12-06T02:04:46.120Z,61.63
2022-12-06T02:07:15.366Z,53.95
2022-12-06T02:09:46.662Z,54.13
2022-12-06T02:12:16.274Z,54.83
2022-12-06T02:15:06.597Z,88.65
2022-12-06T02:18:00.401Z,60.65
2022-12-06T02:21:01.490Z,64.10
2022-12-06T02:23:43.717Z,64.60
2022-12-06T02:26:37.158Z,59.50
2022-12-06T02:29:10.198Z,71.95
2022-12-06T02:31:49.006Z,71.63
2022-12-06T02:34:35.932Z,58.00
2022-12-06T02:37:07.394Z,55.20
2022-12-06T02:39:43.789Z,60.58
2022-12-06T02:42:11.990Z,68.20
2022-12-06T02:44:46.503Z,68.72
2022-12-06T02:47:34.926Z,66.10
2022-12-06T02:50:22.565Z,53.53
2022-12-06T02:53:13.226Z,69.00
2022-12-06T02:56:01.011Z,61.78
2022-12-06T02:58:48.453Z,57.03
2022-12-06T03:01:38.243Z,64.55
2022-12-06T03:04:32.414Z,76.60
2022-12-06T03:07:29.664Z,87.90
2022-12-06T03:10:21.159Z,60.47
2022-12-06T03:13:19.714Z,74.50
2022-12-06T03:15:50.065Z,64.55
2022-12-06T03:18:35.522Z,63.78
2022-12-06T03:21:34.458Z,61.13
2022-12-06T03:24:15.218Z,57.78
2022-12-06T03:26:56.874Z,61.38
2022-12-06T03:29:42.703Z,79.22
2022-12-06T03:32:16.341Z,97.45
2022-12-06T03:34:47.618Z,101.70
2022-12-06T03:37:18.965Z,93.07
2022-12-06T03:40:05.330Z,58.38
2022-12-06T03:42:56.261Z,68.10
2022-12-06T03:45:47.464Z,73.18
2022-12-06T03:49:01.470Z,53.63
2022-12-06T03:51:49.458Z,113.45
2022-12-06T03:54:35.542Z,89.57
2022-12-06T03:57:06.927Z,68.82
2022-12-06T03:59:35.634Z,60.42
2022-12-06T04:02:06.101Z,98.45
2022-12-06T04:04:40.476Z,78.82
2022-12-06T04:07:13.857Z,111.45
2022-12-06T04:09:53.173Z,72.43
2022-12-06T04:12:47.610Z,76.00
2022-12-06T04:15:16.496Z,61.85
2022-12-06T04:18:13.325Z,62.67
2022-12-06T04:21:04.754Z,74.63
2022-12-06T04:23:38.090Z,71.53
2022-12-06T04:26:22.209Z,67.43
2022-12-06T04:29:26.335Z,69.68
2022-12-06T04:35:28.215Z,66.13
2022-12-06T04:38:35.225Z,76.57
2022-12-06T04:41:33.713Z,71.90
2022-12-06T04:44:15.957Z,64.32
2022-12-06T04:47:01.553Z,58.33
2022-12-06T04:49:49.329Z,72.13
2022-12-06T04:52:36.635Z,80.47
2022-12-06T04:55:21.604Z,121.50
2022-12-06T04:58:05.998Z,100.13
2022-12-06T05:00:35.059Z,112.65
2022-12-06T05:03:22.962Z,79.50
2022-12-06T05:05:52.032Z,78.20
2022-12-06T05:08:22.970Z,94.40
2022-12-06T05:10:52.630Z,85.10
2022-12-06T05:13:24.059Z,79.38
2022-12-06T05:15:53.387Z,73.68
2022-12-06T05:18:22.319Z,70.32
2022-12-06T05:20:51.165Z,74.85
2022-12-06T05:23:37.306Z,67.80
2022-12-06T05:26:30.002Z,71.53
2022-12-06T05:29:15.548Z,67.68
2022-12-06T05:32:01.773Z,76.60
2022-12-06T05:34:33.050Z,72.15
2022-12-06T05:37:04.379Z,72.90
2022-12-06T05:39:34.240Z,60.78
2022-12-06T05:42:05.980Z,78.10
2022-12-06T05:44:41.336Z,71.70
2022-12-06T05:47:12.102Z,67.13
2022-12-06T05:49:40.685Z,78.47
2022-12-06T05:52:09.774Z,74.70
2022-12-06T05:54:40.475Z,94.68
2022-12-06T05:57:08.765Z,81.93
2022-12-06T05:59:37.101Z,79.50
2022-12-06T06:02:09.067Z,79.55
2022-12-06T06:04:39.934Z,72.93
2022-12-06T06:07:08.704Z,73.07
2022-12-06T06:09:37.429Z,108.18
2022-12-06T06:12:12.138Z,80.22
2022-12-06T06:14:42.214Z,74.10
2022-12-06T06:17:10.756Z,92.68
2022-12-06T06:19:39.461Z,84.45
2022-12-06T06:22:11.032Z,85.68
2022-12-06T06:24:41.264Z,70.93
2022-12-06T06:27:09.960Z,82.55
2022-12-06T06:29:45.316Z,73.50
2022-12-06T06:32:15.060Z,76.07
2022-12-06T06:34:44.483Z,107.75
2022-12-06T06:37:12.924Z,77.20
2022-12-06T06:39:46.440Z,92.93
2022-12-06T06:42:15.657Z,84.28
2022-12-06T06:44:46.638Z,96.70
2022-12-06T06:47:15.033Z,79.20
2022-12-06T06:49:43.643Z,85.50
2022-12-06T06:52:31.277Z,82.35
2022-12-06T06:55:12.766Z,75.28
2022-12-06T06:58:00.009Z,99.93
2022-12-06T07:00:57.287Z,80.65
2022-12-06T07:03:41.996Z,79.82
2022-12-06T07:06:10.978Z,82.57
2022-12-06T07:08:47.204Z,75.57
2022-12-06T07:11:16.397Z,80.22
2022-12-06T07:13:59.056Z,77.50
2022-12-06T07:16:46.402Z,84.45
2022-12-06T07:19:33.950Z,80.55
2022-12-06T07:22:21.598Z,87.75
2022-12-06T07:25:07.936Z,80.75
2022-12-06T07:27:57.931Z,86.70
2022-12-06T07:30:43.409Z,96.63
2022-12-06T07:33:31.092Z,77.90
2022-12-06T07:36:14.840Z,99.72
2022-12-06T07:41:31.344Z,85.00
2022-12-06T07:44:18.809Z,84.68
2022-12-06T07:47:04.548Z,96.28
2022-12-06T07:49:43.122Z,95.88
2022-12-06T07:52:25.534Z,121.72
2022-12-06T07:55:07.858Z,101.55
2022-12-06T07:57:43.708Z,110.05
2022-12-06T08:00:15.973Z,138.93
2022-12-06T08:03:03.592Z,107.43
2022-12-06T08:05:35.897Z,111.93
2022-12-06T08:08:04.485Z,96.72
2022-12-06T08:10:38.392Z,97.50
2022-12-06T08:13:10.830Z,94.28
2022-12-06T08:15:42.145Z,112.90
2022-12-06T08:18:30.927Z,110.90
2022-12-06T08:21:04.856Z,86.88
2022-12-06T08:23:39.485Z,153.82
2022-12-06T08:26:09.381Z,106.80
2022-12-06T08:28:49.664Z,136.40
2022-12-06T08:31:39.878Z,97.85
2022-12-06T08:34:27.583Z,122.15
2022-12-06T08:37:12.600Z,102.00
2022-12-06T08:40:02.964Z,94.13
2022-12-06T08:42:50.824Z,103.50
2022-12-06T08:45:38.380Z,95.72
2022-12-06T08:48:25.293Z,90.57
2022-12-06T08:51:08.438Z,99.50
2022-12-06T08:53:46.949Z,91.93
2022-12-06T08:56:34.580Z,101.43
2022-12-06T08:59:17.853Z,88.85
2022-12-06T09:02:02.306Z,86.05
2022-12-06T09:04:33.118Z,81.75
2022-12-06T09:07:08.690Z,97.45
2022-12-06T09:09:40.984Z,81.28
2022-12-06T09:12:09.464Z,79.13
2022-12-06T09:14:49.963Z,77.75
2022-12-06T09:17:28.118Z,89.65
2022-12-06T09:20:08.315Z,80.18
2022-12-06T09:22:56.298Z,77.13
2022-12-06T09:25:43.954Z,98.85
2022-12-06T09:28:24.755Z,94.68
2022-12-06T09:31:11.979Z,95.32
2022-12-06T09:33:54.094Z,92.38
2022-12-06T09:36:39.719Z,89.70
2022-12-06T09:39:48.778Z,100.05
2022-12-06T09:42:59.642Z,98.68
2022-12-06T09:45:31.118Z,94.55
2022-12-06T09:48:08.105Z,89.40
2022-12-06T09:50:42.125Z,78.88
2022-12-06T09:53:16.963Z,73.25
2022-12-06T09:55:49.769Z,83.20
2022-12-06T09:58:22.435Z,87.75
2022-12-06T10:00:56.884Z,83.65
2022-12-06T10:03:36.936Z,78.20
2022-12-06T10:06:08.090Z,69.13
2022-12-06T10:08:55.681Z,69.22
2022-12-06T10:11:42.398Z,83.20
2022-12-06T10:14:30.460Z,67.78
2022-12-06T10:16:58.641Z,68.55
2022-12-06T10:19:45.883Z,74.32
2022-12-06T10:22:23.186Z,72.13
2022-12-06T10:25:00.387Z,59.75
2022-12-06T10:27:37.664Z,72.22
2022-12-06T10:30:06.709Z,76.00
2022-12-06T10:33:03.898Z,62.60
2022-12-06T10:35:44.392Z,66.43
2022-12-06T10:38:39.105Z,58.72
2022-12-06T10:41:29.492Z,58.22
2022-12-06T10:44:08.591Z,79.82
2022-12-06T10:47:06.652Z,58.55
2022-12-06T10:49:56.687Z,55.42
2022-12-06T10:52:42.029Z,51.70
2022-12-06T10:55:12.791Z,53.45
2022-12-06T10:57:44.172Z,56.15
2022-12-06T11:00:17.685Z,53.70
2022-12-06T11:03:21.532Z,46.58
2022-12-06T11:05:56.082Z,63.20
2022-12-06T11:08:42.711Z,52.22
2022-12-06T11:11:31.055Z,47.75
2022-12-06T11:14:21.713Z,59.10
2022-12-06T11:17:01.757Z,64.38
2022-12-06T11:20:04.305Z,55.03
2022-12-06T11:22:59.446Z,63.15
2022-12-06T11:25:47.141Z,61.10
2022-12-06T11:28:25.086Z,75.43
2022-12-06T11:31:04.787Z,80.55
2022-12-06T11:33:34.986Z,85.15
2022-12-06T11:36:16.132Z,80.88
2022-12-06T11:39:02.307Z,87.50
2022-12-06T11:41:50.240Z,105.00
2022-12-06T11:44:49.397Z,89.78
2022-12-06T11:47:37.299Z,95.53
2022-12-06T11:50:23.964Z,73.32
2022-12-06T11:53:32.519Z,75.53
2022-12-06T11:56:04.352Z,82.78
2022-12-06T11:58:50.149Z,77.85
2022-12-06T12:01:19.280Z,70.60
2022-12-06T12:03:48.364Z,69.28
2022-12-06T12:06:27.625Z,80.22
2022-12-06T12:08:58.128Z,62.33
2022-12-06T12:11:33.490Z,61.65
2022-12-06T12:14:06.177Z,61.90
2022-12-06T12:16:46.506Z,65.35
2022-12-06T12:19:33.055Z,64.65
2022-12-06T12:22:14.353Z,72.43
2022-12-06T12:25:11.164Z,62.13
2022-12-06T12:27:42.240Z,51.25
2022-12-06T12:30:16.544Z,55.25
2022-12-06T12:32:51.974Z,64.15
2022-12-06T12:35:25.262Z,54.53
2022-12-06T12:38:06.347Z,58.67
2022-12-06T12:40:49.318Z,58.08
2022-12-06T12:43:28.494Z,59.88
2022-12-06T12:46:11.326Z,60.00
2022-12-06T12:48:43.882Z,47.33
2022-12-06T12:51:24.930Z,56.17
2022-12-06T12:53:57.970Z,66.85
2022-12-06T12:56:27.258Z,63.75
2022-12-06T12:59:17.259Z,51.15
2022-12-06T13:02:12.934Z,41.92
2022-12-06T13:08:07.815Z,49.17
2022-12-06T13:10:39.161Z,44.60
2022-12-06T13:13:15.717Z,50.90
2022-12-06T13:18:21.972Z,47.65
2022-12-06T13:21:01.730Z,41.15
2022-12-06T13:23:45.780Z,33.88
2022-12-06T13:26:33.165Z,32.63
2022-12-06T13:29:15.990Z,34.10
2022-12-06T13:31:56.232Z,38.38
2022-12-06T13:34:43.000Z,37.58
2022-12-06T13:37:30.710Z,34.63
2022-12-06T13:40:33.345Z,31.58
2022-12-06T13:43:24.110Z,36.42
2022-12-06T13:46:08.202Z,29.40
2022-12-06T13:48:40.003Z,28.00
2022-12-06T13:51:13.057Z,27.33
2022-12-06T13:54:00.389Z,25.85
2022-12-06T13:56:37.594Z,25.67
2022-12-06T13:59:25.819Z,26.92
2022-12-06T14:01:54.873Z,19.17
2022-12-06T14:07:04.157Z,19.35
2022-12-06T14:09:39.916Z,15.55
2022-12-06T14:12:16.693Z,29.13
2022-12-06T14:14:58.453Z,15.57
2022-12-06T14:20:35.936Z,19.25
2022-12-06T14:23:40.054Z,18.05
2022-12-06T14:26:31.784Z,13.13
2022-12-06T14:29:07.382Z,17.40
2022-12-06T14:31:50.696Z,12.77
2022-12-06T14:34:33.192Z,16.25
2022-12-06T14:37:02.879Z,22.52
2022-12-06T14:39:51.354Z,13.68
2022-12-06T14:45:43.530Z,11.30
2022-12-06T14:48:48.101Z,13.40
2022-12-06T14:51:38.815Z,14.85
2022-12-06T14:54:27.951Z,10.70
2022-12-06T14:57:19.160Z,15.65
2022-12-06T15:00:26.965Z,13.77
2022-12-06T15:03:11.439Z,14.82
2022-12-06T15:05:57.167Z,17.48
2022-12-06T15:08:39.329Z,10.20
2022-12-06T15:11:42.710Z,10.13
2022-12-06T15:14:11.557Z,10.38
2022-12-06T15:16:40.459Z,9.45
2022-12-06T15:19:12.950Z,14.18
2022-12-06T15:21:43.449Z,14.40
2022-12-06T15:24:16.441Z,14.70
2022-12-06T15:29:16.756Z,12.10
2022-12-06T15:31:51.447Z,10.30
2022-12-06T15:34:24.573Z,9.65
2022-12-06T15:37:15.207Z,15.40
2022-12-06T15:39:46.841Z,9.65
2022-12-06T15:42:26.664Z,10.68
2022-12-06T15:45:11.294Z,10.65
2022-12-06T15:47:56.869Z,11.60
2022-12-06T15:50:43.036Z,14.18
2022-12-06T15:53:14.699Z,9.73
2022-12-06T15:55:44.618Z,15.13
2022-12-06T15:58:13.564Z,11.55
2022-12-06T16:00:42.466Z,13.73
2022-12-06T16:05:58.931Z,24.15
2022-12-06T16:08:45.297Z,18.05
2022-12-06T16:11:25.830Z,16.60
2022-12-06T16:14:07.618Z,19.53
2022-12-06T16:16:43.432Z,13.97
2022-12-06T16:19:12.200Z,15.98
2022-12-06T16:21:58.041Z,15.70
2022-12-06T16:24:26.124Z,11.95
2022-12-06T16:26:54.656Z,85.55
2022-12-06T16:29:32.965Z,62.15
2022-12-06T16:32:19.321Z,34.95
2022-12-06T16:37:51.272Z,12.95
2022-12-06T16:40:38.976Z,16.00
2022-12-06T16:43:25.100Z,41.88
2022-12-06T16:46:19.841Z,36.47
2022-12-06T16:49:43.651Z,29.48
2022-12-06T16:52:12.430Z,105.07
2022-12-06T16:54:51.658Z,25.33
2022-12-06T16:57:39.300Z,30.48
2022-12-06T17:00:09.235Z,27.05
2022-12-06T17:02:56.989Z,22.58
2022-12-06T17:05:26.245Z,21.77
2022-12-06T17:07:55.482Z,22.70
2022-12-06T17:10:26.363Z,23.65
2022-12-06T17:13:27.207Z,18.00
2022-12-06T17:16:07.864Z,21.23
2022-12-06T17:18:38.216Z,19.17
2022-12-06T17:21:19.098Z,17.88
2022-12-06T17:24:00.835Z,15.13
2022-12-06T17:26:48.780Z,16.45
2022-12-06T17:29:37.207Z,18.05
2022-12-06T17:32:06.378Z,14.88
2022-12-06T17:34:36.606Z,17.83
2022-12-06T17:37:06.200Z,22.83
2022-12-06T17:39:35.436Z,15.52
2022-12-06T17:42:35.871Z,21.53
2022-12-06T17:45:05.714Z,23.92
2022-12-06T17:47:38.160Z,25.20
2022-12-06T17:50:11.129Z,19.33
2022-12-06T17:52:58.745Z,22.77
2022-12-06T17:55:45.766Z,22.60
2022-12-06T17:58:33.316Z,20.63
2022-12-06T18:01:16.700Z,18.77
2022-12-06T18:04:03.939Z,15.77
2022-12-06T18:06:51.517Z,18.20
2022-12-06T18:09:39.135Z,21.30
2022-12-06T18:12:20.717Z,18.73
2022-12-06T18:15:36.071Z,18.55
2022-12-06T18:18:48.611Z,17.30
2022-12-06T18:21:43.170Z,18.75
2022-12-06T18:24:33.539Z,26.92
2022-12-06T18:27:21.453Z,19.33
2022-12-06T18:30:09.392Z,22.20
2022-12-06T18:32:57.054Z,29.05
2022-12-06T18:35:44.903Z,20.02
2022-12-06T18:38:16.078Z,24.85
2022-12-06T18:40:46.173Z,21.70
2022-12-06T18:43:15.558Z,24.27
2022-12-06T18:45:44.144Z,22.55
2022-12-06T18:48:14.546Z,18.83
2022-12-06T18:51:05.096Z,17.30
2022-12-06T18:53:48.054Z,24.90
2022-12-06T18:56:36.214Z,23.48
2022-12-06T18:59:17.082Z,24.17
2022-12-06T19:01:46.657Z,19.58
2022-12-06T19:04:16.637Z,23.05
2022-12-06T19:06:49.100Z,24.52
2022-12-06T19:09:22.362Z,23.80
2022-12-06T19:11:52.015Z,23.75
2022-12-06T19:14:21.226Z,27.55
2022-12-06T19:16:52.739Z,29.42
2022-12-06T19:19:23.263Z,32.45
2022-12-06T19:21:53.309Z,30.27
2022-12-06T19:24:23.575Z,22.85
2022-12-06T19:26:55.167Z,21.27
2022-12-06T19:29:23.523Z,20.17
2022-12-06T19:31:52.160Z,23.98
2022-12-06T19:34:22.481Z,24.67
2022-12-06T19:36:54.045Z,22.00
2022-12-06T19:39:26.209Z,25.27
2022-12-06T19:42:13.425Z,20.58
2022-12-06T19:44:45.192Z,27.38
2022-12-06T19:47:18.564Z,23.02
2022-12-06T19:49:49.720Z,18.77
2022-12-06T19:52:19.278Z,21.40
2022-12-06T19:54:47.740Z,22.50
2022-12-06T19:57:40.317Z,22.48
2022-12-06T20:00:29.831Z,38.53
2022-12-06T20:03:17.695Z,59.72
2022-12-06T20:06:06.664Z,29.83
2022-12-06T20:08:55.364Z,25.50
2022-12-06T20:12:00.706Z,25.42
2022-12-06T20:14:55.810Z,66.72
2022-12-06T20:17:41.015Z,28.35
2022-12-06T20:20:31.313Z,32.30
2022-12-06T20:23:15.651Z,20.25
2022-12-06T20:26:02.654Z,24.05
2022-12-06T20:28:49.524Z,23.67
2022-12-06T20:31:37.109Z,23.42
2022-12-06T20:34:24.864Z,31.73
2022-12-06T20:37:06.301Z,28.60
2022-12-06T20:39:37.196Z,28.55
2022-12-06T20:42:10.395Z,22.23
2022-12-06T20:47:10.392Z,21.95
2022-12-06T20:49:53.655Z,24.98
2022-12-06T20:52:42.570Z,28.45
2022-12-06T20:55:30.210Z,28.38
2022-12-06T20:58:14.747Z,26.13
2022-12-06T21:00:46.201Z,32.40
2022-12-06T21:03:32.031Z,31.80
2022-12-06T21:06:05.514Z,27.38
2022-12-06T21:08:36.347Z,25.27
2022-12-06T21:11:25.014Z,32.85
2022-12-06T21:14:07.730Z,35.75
2022-12-06T21:16:55.386Z,28.65
2022-12-06T21:19:39.729Z,28.83
2022-12-06T21:22:09.134Z,29.30
2022-12-06T21:24:39.393Z,28.00
2022-12-06T21:27:07.876Z,30.73
2022-12-06T21:29:42.769Z,31.10
2022-12-06T21:32:25.722Z,39.45
2022-12-06T21:35:05.576Z,35.78
2022-12-06T21:37:53.401Z,37.00
2022-12-06T21:40:41.240Z,33.88
2022-12-06T21:43:12.870Z,34.65
2022-12-06T21:45:54.560Z,32.78
2022-12-06T21:48:42.261Z,38.17
2022-12-06T21:51:25.123Z,37.85
2022-12-06T21:54:10.413Z,39.55
2022-12-06T21:56:43.266Z,33.05
2022-12-06T21:59:14.833Z,49.38
2022-12-06T22:01:43.446Z,44.92
2022-12-06T22:04:27.157Z,44.05
2022-12-06T22:07:06.794Z,41.75
2022-12-06T22:09:45.593Z,38.15
2022-12-06T22:12:28.358Z,47.55
2022-12-06T22:14:58.129Z,41.42
2022-12-06T22:17:32.059Z,42.80
2022-12-06T22:20:03.728Z,46.95
2022-12-06T22:22:38.288Z,50.03
2022-12-06T22:25:12.622Z,50.83
2022-12-06T22:27:47.633Z,48.45
2022-12-06T22:30:16.160Z,51.55
2022-12-06T22:33:05.800Z,41.88
2022-12-06T22:35:34.890Z,46.22
2022-12-06T22:38:03.420Z,42.85
2022-12-06T22:40:33.303Z,50.78
2022-12-06T22:43:08.004Z,48.67
2022-12-06T22:45:49.410Z,47.47
2022-12-06T22:48:41.308Z,43.92
2022-12-06T22:51:24.316Z,51.10
2022-12-06T22:54:14.134Z,52.42
2022-12-06T22:57:02.311Z,52.70
2022-12-06T22:59:42.081Z,65.45
2022-12-06T23:02:29.675Z,53.80
2022-12-06T23:05:10.923Z,54.00
2022-12-06T23:07:58.670Z,51.13
2022-12-06T23:10:48.483Z,55.85
2022-12-06T23:13:36.460Z,57.40
2022-12-06T23:16:20.138Z,60.35
2022-12-06T23:18:49.190Z,53.88
2022-12-06T23:21:18.210Z,59.30
2022-12-06T23:23:48.757Z,59.70
2022-12-06T23:26:23.479Z,61.35
2022-12-06T23:29:11.624Z,61.33
2022-12-06T23:31:55.677Z,60.50
2022-12-06T23:34:39.181Z,65.93
2022-12-06T23:37:20.941Z,61.40
2022-12-06T23:40:05.374Z,60.58
2022-12-06T23:42:38.253Z,65.60
2022-12-06T23:45:07.530Z,65.95
2022-12-06T23:47:52.726Z,59.28
2022-12-06T23:50:39.110Z,58.78
2022-12-06T23:53:19.442Z,65.22
2022-12-06T23:56:06.867Z,60.88
2022-12-06T23:58:54.486Z,58.58
